sensor_id;sensor_type;location;lat;lon;timestamp;pressure;altitude;pressure_sealevel;temperature;humidity
66164;BME280;52962;51.088;3.096;2023-04-10T00:02:24;101647.53;;;13.55;nan
66164;BME280;52962;51.088;3.096;2023-04-10T00:04:54;101640.50;;;13.57;nan
66164;BME280;52962;51.088;3.096;2023-04-10T00:07:22;101637.00;;;13.58;nan
66164;BME280;52962;51.088;3.096;2023-04-10T00:09:50;101631.69;;;13.58;nan
66164;BME280;52962;51.088;3.096;2023-04-10T00:12:18;101633.63;;;13.65;nan
66164;BME280;52962;51.088;3.096;2023-04-10T00:14:46;101623.97;;;13.69;nan
66164;BME280;52962;51.088;3.096;2023-04-10T00:17:15;101621.97;;;13.57;nan
66164;BME280;52962;51.088;3.096;2023-04-10T00:19:43;101619.34;;;13.57;nan
66164;BME280;52962;51.088;3.096;2023-04-10T00:22:12;101615.75;;;13.55;nan
66164;BME280;52962;51.088;3.096;2023-04-10T00:24:40;101615.66;;;13.49;nan
66164;BME280;52962;51.088;3.096;2023-04-10T00:27:08;101605.53;;;13.28;nan
66164;BME280;52962;51.088;3.096;2023-04-10T00:29:36;101602.88;;;13.28;nan
66164;BME280;52962;51.088;3.096;2023-04-10T00:32:04;101602.13;;;13.34;nan
66164;BME280;52962;51.088;3.096;2023-04-10T00:34:32;101593.16;;;13.27;nan
66164;BME280;52962;51.088;3.096;2023-04-10T00:37:00;101597.56;;;13.27;nan
66164;BME280;52962;51.088;3.096;2023-04-10T00:39:30;101586.81;;;13.19;nan
66164;BME280;52962;51.088;3.096;2023-04-10T00:41:58;101583.28;;;13.19;nan
66164;BME280;52962;51.088;3.096;2023-04-10T00:44:27;101577.16;;;13.21;nan
66164;BME280;52962;51.088;3.096;2023-04-10T00:46:55;101580.50;;;13.14;nan
66164;BME280;52962;51.088;3.096;2023-04-10T00:49:23;101576.19;;;13.18;nan
66164;BME280;52962;51.088;3.096;2023-04-10T00:51:51;101575.50;;;13.26;nan
66164;BME280;52962;51.088;3.096;2023-04-10T00:54:23;101571.09;;;13.27;nan
66164;BME280;52962;51.088;3.096;2023-04-10T00:56:53;101560.47;;;13.24;nan
66164;BME280;52962;51.088;3.096;2023-04-10T00:59:23;101554.34;;;13.26;nan
66164;BME280;52962;51.088;3.096;2023-04-10T01:01:51;101563.22;;;13.30;nan
66164;BME280;52962;51.088;3.096;2023-04-10T01:04:20;101547.44;;;13.33;nan
66164;BME280;52962;51.088;3.096;2023-04-10T01:06:57;101542.88;;;13.26;nan
66164;BME280;52962;51.088;3.096;2023-04-10T01:09:34;101547.41;;;13.31;nan
66164;BME280;52962;51.088;3.096;2023-04-10T01:12:14;101541.16;;;13.28;nan
66164;BME280;52962;51.088;3.096;2023-04-10T01:14:54;101534.00;;;13.24;nan
66164;BME280;52962;51.088;3.096;2023-04-10T01:17:30;101534.00;;;13.24;nan
66164;BME280;52962;51.088;3.096;2023-04-10T01:20:06;101527.69;;;13.17;nan
66164;BME280;52962;51.088;3.096;2023-04-10T01:22:51;101525.97;;;13.19;nan
66164;BME280;52962;51.088;3.096;2023-04-10T01:25:39;101523.22;;;13.15;nan
66164;BME280;52962;51.088;3.096;2023-04-10T01:28:44;101517.81;;;13.10;nan
66164;BME280;52962;51.088;3.096;2023-04-10T01:31:20;101518.75;;;13.12;nan
66164;BME280;52962;51.088;3.096;2023-04-10T01:33:53;101522.22;;;13.09;nan
66164;BME280;52962;51.088;3.096;2023-04-10T01:36:26;101523.22;;;13.15;nan
66164;BME280;52962;51.088;3.096;2023-04-10T01:38:57;101528.50;;;13.15;nan
66164;BME280;52962;51.088;3.096;2023-04-10T01:41:25;101518.66;;;13.07;nan
66164;BME280;52962;51.088;3.096;2023-04-10T01:43:57;101523.00;;;13.05;nan
66164;BME280;52962;51.088;3.096;2023-04-10T01:46:27;101522.22;;;13.09;nan
66164;BME280;52962;51.088;3.096;2023-04-10T01:48:59;101523.00;;;13.05;nan
66164;BME280;52962;51.088;3.096;2023-04-10T01:51:29;101522.91;;;13.01;nan
66164;BME280;52962;51.088;3.096;2023-04-10T01:54:00;101518.63;;;13.06;nan
66164;BME280;52962;51.088;3.096;2023-04-10T01:56:32;101512.31;;;12.99;nan
66164;BME280;52962;51.088;3.096;2023-04-10T01:59:02;101515.06;;;13.04;nan
66164;BME280;52962;51.088;3.096;2023-04-10T02:01:31;101515.88;;;13.01;nan
66164;BME280;52962;51.088;3.096;2023-04-10T02:04:00;101514.94;;;12.99;nan
66164;BME280;52962;51.088;3.096;2023-04-10T02:06:36;101505.25;;;12.98;nan
66164;BME280;52962;51.088;3.096;2023-04-10T02:09:14;101513.19;;;13.00;nan
66164;BME280;52962;51.088;3.096;2023-04-10T02:11:53;101510.53;;;12.98;nan
66164;BME280;52962;51.088;3.096;2023-04-10T02:14:25;101515.75;;;12.95;nan
66164;BME280;52962;51.088;3.096;2023-04-10T02:16:55;101509.63;;;12.98;nan
66164;BME280;52962;51.088;3.096;2023-04-10T02:19:26;101504.41;;;13.01;nan
66164;BME280;52962;51.088;3.096;2023-04-10T02:21:54;101500.81;;;12.97;nan
66164;BME280;52962;51.088;3.096;2023-04-10T02:24:25;101505.16;;;12.95;nan
66164;BME280;52962;51.088;3.096;2023-04-10T02:26:53;101499.81;;;12.92;nan
66164;BME280;52962;51.088;3.096;2023-04-10T02:29:23;101502.47;;;12.92;nan
66164;BME280;52962;51.088;3.096;2023-04-10T02:31:52;101497.97;;;12.88;nan
66164;BME280;52962;51.088;3.096;2023-04-10T02:34:20;101503.31;;;12.91;nan
66164;BME280;52962;51.088;3.096;2023-04-10T02:36:48;101485.81;;;12.96;nan
66164;BME280;52962;51.088;3.096;2023-04-10T02:39:17;101487.53;;;12.94;nan
66164;BME280;52962;51.088;3.096;2023-04-10T02:41:49;101482.97;;;12.87;nan
66164;BME280;52962;51.088;3.096;2023-04-10T02:44:17;101483.63;;;12.77;nan
66164;BME280;52962;51.088;3.096;2023-04-10T02:46:46;101478.34;;;12.77;nan
66164;BME280;52962;51.088;3.096;2023-04-10T02:49:15;101470.38;;;12.75;nan
66164;BME280;52962;51.088;3.096;2023-04-10T02:51:43;101469.44;;;12.72;nan
66164;BME280;52962;51.088;3.096;2023-04-10T02:54:11;101469.56;;;12.78;nan
66164;BME280;52962;51.088;3.096;2023-04-10T02:56:41;101470.44;;;12.78;nan
66164;BME280;52962;51.088;3.096;2023-04-10T02:59:09;101459.06;;;12.81;nan
66164;BME280;52962;51.088;3.096;2023-04-10T03:01:37;101449.34;;;12.80;nan
66164;BME280;52962;51.088;3.096;2023-04-10T03:04:08;101446.63;;;12.77;nan
66164;BME280;52962;51.088;3.096;2023-04-10T03:06:39;101436.13;;;12.80;nan
66164;BME280;52962;51.088;3.096;2023-04-10T03:09:07;101430.84;;;12.80;nan
66164;BME280;52962;51.088;3.096;2023-04-10T03:11:35;101429.97;;;12.81;nan
66164;BME280;52962;51.088;3.096;2023-04-10T03:14:03;101429.13;;;12.82;nan
66164;BME280;52962;51.088;3.096;2023-04-10T03:16:31;101429.88;;;12.76;nan
66164;BME280;52962;51.088;3.096;2023-04-10T03:19:02;101433.50;;;12.82;nan
66164;BME280;52962;51.088;3.096;2023-04-10T03:21:31;101431.78;;;12.84;nan
66164;BME280;52962;51.088;3.096;2023-04-10T03:23:59;101434.53;;;12.88;nan
66164;BME280;52962;51.088;3.096;2023-04-10T03:26:28;101427.47;;;12.87;nan
66164;BME280;52962;51.088;3.096;2023-04-10T03:28:56;101431.84;;;12.87;nan
66164;BME280;52962;51.088;3.096;2023-04-10T03:31:24;101425.59;;;12.83;nan
66164;BME280;52962;51.088;3.096;2023-04-10T03:33:56;101430.84;;;12.80;nan
66164;BME280;52962;51.088;3.096;2023-04-10T03:36:24;101430.91;;;12.83;nan
66164;BME280;52962;51.088;3.096;2023-04-10T03:38:54;101427.53;;;12.90;nan
66164;BME280;52962;51.088;3.096;2023-04-10T03:41:23;101426.69;;;12.93;nan
66164;BME280;52962;51.088;3.096;2023-04-10T03:43:52;101427.59;;;12.93;nan
66164;BME280;52962;51.088;3.096;2023-04-10T03:46:20;101430.19;;;12.92;nan
66164;BME280;52962;51.088;3.096;2023-04-10T03:48:50;101418.66;;;12.88;nan
66164;BME280;52962;51.088;3.096;2023-04-10T03:51:20;101419.44;;;12.83;nan
66164;BME280;52962;51.088;3.096;2023-04-10T03:53:50;101419.38;;;12.80;nan
66164;BME280;52962;51.088;3.096;2023-04-10T03:56:20;101418.44;;;12.77;nan
66164;BME280;52962;51.088;3.096;2023-04-10T03:58:48;101417.69;;;12.83;nan
66164;BME280;52962;51.088;3.096;2023-04-10T04:01:18;101418.59;;;12.85;nan
66164;BME280;52962;51.088;3.096;2023-04-10T04:04:00;101418.56;;;12.84;nan
66164;BME280;52962;51.088;3.096;2023-04-10T04:06:55;101412.38;;;12.82;nan
66164;BME280;52962;51.088;3.096;2023-04-10T04:09:45;101414.16;;;12.83;nan
66164;BME280;52962;51.088;3.096;2023-04-10T04:12:33;101404.28;;;12.74;nan
66164;BME280;52962;51.088;3.096;2023-04-10T04:15:20;101409.31;;;12.62;nan
66164;BME280;52962;51.088;3.096;2023-04-10T04:18:10;101411.09;;;12.63;nan
66164;BME280;52962;51.088;3.096;2023-04-10T04:20:41;101404.88;;;12.61;nan
66164;BME280;52962;51.088;3.096;2023-04-10T04:23:18;101398.75;;;12.62;nan
66164;BME280;52962;51.088;3.096;2023-04-10T04:26:18;101386.38;;;12.61;nan
66164;BME280;52962;51.088;3.096;2023-04-10T04:28:47;101386.34;;;12.59;nan
66164;BME280;52962;51.088;3.096;2023-04-10T04:31:34;101369.47;;;12.53;nan
66164;BME280;52962;51.088;3.096;2023-04-10T04:34:18;101365.88;;;12.48;nan
66164;BME280;52962;51.088;3.096;2023-04-10T04:37:04;101373.81;;;12.48;nan
66164;BME280;52962;51.088;3.096;2023-04-10T04:40:00;101373.75;;;12.44;nan
66164;BME280;52962;51.088;3.096;2023-04-10T04:42:39;101375.47;;;12.42;nan
66164;BME280;52962;51.088;3.096;2023-04-10T04:45:23;101371.91;;;12.40;nan
66164;BME280;52962;51.088;3.096;2023-04-10T04:48:05;101372.78;;;12.41;nan
66164;BME280;52962;51.088;3.096;2023-04-10T04:51:05;101366.44;;;12.33;nan
66164;BME280;52962;51.088;3.096;2023-04-10T04:53:49;101364.84;;;12.39;nan
66164;BME280;52962;51.088;3.096;2023-04-10T04:56:36;101356.81;;;12.35;nan
66164;BME280;52962;51.088;3.096;2023-04-10T04:59:30;101355.03;;;12.34;nan
66164;BME280;52962;51.088;3.096;2023-04-10T05:02:08;101349.66;;;12.29;nan
66164;BME280;52962;51.088;3.096;2023-04-10T05:04:42;101349.78;;;12.35;nan
66164;BME280;52962;51.088;3.096;2023-04-10T05:07:21;101347.09;;;12.34;nan
66164;BME280;52962;51.088;3.096;2023-04-10T05:10:09;101342.63;;;12.30;nan
66164;BME280;52962;51.088;3.096;2023-04-10T05:13:00;101337.41;;;12.33;nan
66164;BME280;52962;51.088;3.096;2023-04-10T05:15:45;101342.59;;;12.28;nan
66164;BME280;52962;51.088;3.096;2023-04-10T05:18:35;101334.66;;;12.28;nan
66164;BME280;52962;51.088;3.096;2023-04-10T05:21:21;101337.41;;;12.33;nan
66164;BME280;52962;51.088;3.096;2023-04-10T05:24:08;101327.78;;;12.36;nan
66164;BME280;52962;51.088;3.096;2023-04-10T05:26:43;101327.78;;;12.36;nan
66164;BME280;52962;51.088;3.096;2023-04-10T05:29:24;101320.66;;;12.32;nan
66164;BME280;52962;51.088;3.096;2023-04-10T05:32:15;101320.84;;;12.41;nan
66164;BME280;52962;51.088;3.096;2023-04-10T05:35:01;101324.59;;;12.54;nan
66164;BME280;52962;51.088;3.096;2023-04-10T05:37:52;101335.78;;;12.39;nan
66164;BME280;52962;51.088;3.096;2023-04-10T05:40:47;101328.91;;;12.48;nan
66164;BME280;52962;51.088;3.096;2023-04-10T05:43:34;101332.34;;;12.43;nan
66164;BME280;52962;51.088;3.096;2023-04-10T05:46:10;101334.84;;;12.37;nan
66164;BME280;52962;51.088;3.096;2023-04-10T05:48:55;101329.50;;;12.34;nan
66164;BME280;52962;51.088;3.096;2023-04-10T05:51:50;101340.06;;;12.34;nan
66164;BME280;52962;51.088;3.096;2023-04-10T05:54:32;101336.63;;;12.38;nan
66164;BME280;52962;51.088;3.096;2023-04-10T05:57:10;101334.09;;;12.43;nan
66164;BME280;52962;51.088;3.096;2023-04-10T05:59:44;101338.59;;;12.49;nan
66164;BME280;52962;51.088;3.096;2023-04-10T06:02:38;101335.00;;;12.45;nan
66164;BME280;52962;51.088;3.096;2023-04-10T06:05:14;101335.03;;;12.48;nan
66164;BME280;52962;51.088;3.096;2023-04-10T06:07:45;101325.47;;;12.53;nan
66164;BME280;52962;51.088;3.096;2023-04-10T06:10:13;101327.31;;;12.57;nan
66164;BME280;52962;51.088;3.096;2023-04-10T06:12:42;101326.41;;;12.57;nan
66164;BME280;52962;51.088;3.096;2023-04-10T06:15:12;101330.03;;;12.62;nan
66164;BME280;52962;51.088;3.096;2023-04-10T06:17:41;101323.03;;;12.64;nan
66164;BME280;52962;51.088;3.096;2023-04-10T06:20:10;101320.50;;;12.70;nan
66164;BME280;52962;51.088;3.096;2023-04-10T06:22:39;101322.31;;;12.72;nan
66164;BME280;52962;51.088;3.096;2023-04-10T06:25:09;101318.94;;;12.80;nan
66164;BME280;52962;51.088;3.096;2023-04-10T06:27:37;101313.69;;;12.81;nan
66164;BME280;52962;51.088;3.096;2023-04-10T06:30:09;101305.06;;;12.91;nan
66164;BME280;52962;51.088;3.096;2023-04-10T06:32:37;101290.91;;;12.88;nan
66164;BME280;52962;51.088;3.096;2023-04-10T06:35:06;101296.16;;;12.86;nan
66164;BME280;52962;51.088;3.096;2023-04-10T06:37:34;101281.22;;;12.88;nan
66164;BME280;52962;51.088;3.096;2023-04-10T06:40:05;101281.22;;;12.88;nan
66164;BME280;52962;51.088;3.096;2023-04-10T06:42:36;101279.44;;;12.87;nan
66164;BME280;52962;51.088;3.096;2023-04-10T06:45:14;101277.66;;;12.86;nan
66164;BME280;52962;51.088;3.096;2023-04-10T06:47:42;101282.09;;;12.89;nan
66164;BME280;52962;51.088;3.096;2023-04-10T06:50:10;101281.09;;;12.82;nan
66164;BME280;52962;51.088;3.096;2023-04-10T06:52:38;101270.66;;;12.90;nan
66164;BME280;52962;51.088;3.096;2023-04-10T06:55:06;101254.84;;;12.91;nan
66164;BME280;52962;51.088;3.096;2023-04-10T06:57:36;101253.06;;;12.92;nan
66164;BME280;52962;51.088;3.096;2023-04-10T07:00:05;101254.84;;;12.93;nan
66164;BME280;52962;51.088;3.096;2023-04-10T07:02:33;101249.63;;;12.96;nan
66164;BME280;52962;51.088;3.096;2023-04-10T07:05:01;101247.94;;;13.01;nan
66164;BME280;52962;51.088;3.096;2023-04-10T07:07:29;101246.22;;;13.03;nan
66164;BME280;52962;51.088;3.096;2023-04-10T07:09:58;101240.06;;;13.04;nan
66164;BME280;52962;51.088;3.096;2023-04-10T07:12:26;101241.94;;;13.11;nan
66164;BME280;52962;51.088;3.096;2023-04-10T07:14:56;101239.47;;;13.19;nan
66164;BME280;52962;51.088;3.096;2023-04-10T07:17:24;101231.69;;;13.28;nan
66164;BME280;52962;51.088;3.096;2023-04-10T07:19:52;101235.34;;;13.37;nan
66164;BME280;52962;51.088;3.096;2023-04-10T07:22:20;101231.09;;;13.47;nan
66164;BME280;52962;51.088;3.096;2023-04-10T07:24:48;101225.88;;;13.52;nan
66164;BME280;52962;51.088;3.096;2023-04-10T07:27:16;101221.59;;;13.64;nan
66164;BME280;52962;51.088;3.096;2023-04-10T07:29:46;101221.72;;;13.73;nan
66164;BME280;52962;51.088;3.096;2023-04-10T07:32:15;101217.41;;;13.80;nan
66164;BME280;52962;51.088;3.096;2023-04-10T07:34:44;101214.81;;;13.85;nan
66164;BME280;52962;51.088;3.096;2023-04-10T07:37:12;101204.19;;;13.82;nan
66164;BME280;52962;51.088;3.096;2023-04-10T07:39:40;101203.38;;;13.86;nan
66164;BME280;52962;51.088;3.096;2023-04-10T07:42:09;101201.63;;;13.88;nan
66164;BME280;52962;51.088;3.096;2023-04-10T07:44:37;101193.69;;;13.88;nan
66164;BME280;52962;51.088;3.096;2023-04-10T07:47:05;101191.16;;;13.97;nan
66164;BME280;52962;51.088;3.096;2023-04-10T07:49:35;101186.00;;;14.09;nan
66164;BME280;52962;51.088;3.096;2023-04-10T07:52:03;101186.13;;;14.21;nan
66164;BME280;52962;51.088;3.096;2023-04-10T07:54:31;101182.75;;;14.36;nan
66164;BME280;52962;51.088;3.096;2023-04-10T07:57:00;101182.94;;;14.50;nan
66164;BME280;52962;51.088;3.096;2023-04-10T07:59:28;101181.22;;;14.59;nan
66164;BME280;52962;51.088;3.096;2023-04-10T08:01:56;101185.66;;;14.60;nan
66164;BME280;52962;51.088;3.096;2023-04-10T08:04:24;101172.41;;;14.62;nan
66164;BME280;52962;51.088;3.096;2023-04-10T08:06:54;101172.41;;;14.56;nan
66164;BME280;52962;51.088;3.096;2023-04-10T08:09:22;101172.38;;;14.53;nan
66164;BME280;52962;51.088;3.096;2023-04-10T08:11:50;101166.88;;;14.37;nan
66164;BME280;52962;51.088;3.096;2023-04-10T08:14:18;101166.91;;;14.40;nan
66164;BME280;52962;51.088;3.096;2023-04-10T08:16:46;101171.44;;;14.49;nan
66164;BME280;52962;51.088;3.096;2023-04-10T08:19:14;101165.34;;;14.61;nan
66164;BME280;52962;51.088;3.096;2023-04-10T08:21:42;101167.16;;;14.66;nan
66164;BME280;52962;51.088;3.096;2023-04-10T08:24:12;101161.00;;;14.70;nan
66164;BME280;52962;51.088;3.096;2023-04-10T08:26:40;101161.97;;;14.80;nan
66164;BME280;52962;51.088;3.096;2023-04-10T08:29:08;101151.44;;;14.89;nan
66164;BME280;52962;51.088;3.096;2023-04-10T08:31:36;101148.03;;;15.05;nan
66164;BME280;52962;51.088;3.096;2023-04-10T08:34:04;101139.28;;;15.19;nan
66164;BME280;52962;51.088;3.096;2023-04-10T08:36:33;101143.78;;;15.32;nan
66164;BME280;52962;51.088;3.096;2023-04-10T08:39:01;101135.84;;;15.35;nan
66164;BME280;52962;51.088;3.096;2023-04-10T08:41:30;101140.28;;;15.39;nan
66164;BME280;52962;51.088;3.096;2023-04-10T08:43:58;101133.19;;;15.38;nan
66164;BME280;52962;51.088;3.096;2023-04-10T08:46:26;101120.78;;;15.32;nan
66164;BME280;52962;51.088;3.096;2023-04-10T08:49:00;101124.34;;;15.34;nan
66164;BME280;52962;51.088;3.096;2023-04-10T08:51:36;101120.81;;;15.40;nan
66164;BME280;52962;51.088;3.096;2023-04-10T08:54:10;101121.75;;;15.48;nan
66164;BME280;52962;51.088;3.096;2023-04-10T08:56:42;101118.28;;;15.61;nan
66164;BME280;52962;51.088;3.096;2023-04-10T08:59:13;101111.22;;;15.73;nan
66164;BME280;52962;51.088;3.096;2023-04-10T09:01:42;101098.00;;;15.80;nan
66164;BME280;52962;51.088;3.096;2023-04-10T09:04:10;101095.38;;;15.91;nan
66164;BME280;52962;51.088;3.096;2023-04-10T09:06:38;101082.09;;;15.98;nan
66164;BME280;52962;51.088;3.096;2023-04-10T09:09:07;101085.66;;;16.08;nan
66164;BME280;52962;51.088;3.096;2023-04-10T09:11:59;101089.22;;;16.19;nan
66164;BME280;52962;51.088;3.096;2023-04-10T09:14:29;101083.03;;;16.23;nan
66164;BME280;52962;51.088;3.096;2023-04-10T09:17:15;101082.16;;;16.32;nan
66164;BME280;52962;51.088;3.096;2023-04-10T09:19:44;101069.75;;;16.45;nan
66164;BME280;52962;51.088;3.096;2023-04-10T09:22:13;101068.84;;;16.33;nan
66164;BME280;52962;51.088;3.096;2023-04-10T09:24:43;101067.09;;;16.48;nan
66164;BME280;52962;51.088;3.096;2023-04-10T09:27:28;101052.91;;;16.55;nan
66164;BME280;52962;51.088;3.096;2023-04-10T09:29:57;101053.75;;;16.81;nan
66164;BME280;52962;51.088;3.096;2023-04-10T09:32:37;101049.31;;;16.98;nan
66164;BME280;52962;51.088;3.096;2023-04-10T09:35:06;101047.53;;;17.00;nan
66164;BME280;52962;51.088;3.096;2023-04-10T09:37:35;101052.84;;;16.97;nan
66164;BME280;52962;51.088;3.096;2023-04-10T09:40:03;101047.56;;;16.88;nan
66164;BME280;52962;51.088;3.096;2023-04-10T09:42:34;101044.88;;;16.88;nan
66164;BME280;52962;51.088;3.096;2023-04-10T09:45:04;101045.78;;;16.80;nan
66164;BME280;52962;51.088;3.096;2023-04-10T09:47:32;101039.59;;;16.72;nan
66164;BME280;52962;51.088;3.096;2023-04-10T09:50:00;101036.94;;;16.73;nan
66164;BME280;52962;51.088;3.096;2023-04-10T09:52:30;101036.94;;;16.76;nan
66164;BME280;52962;51.088;3.096;2023-04-10T09:55:00;101027.19;;;16.72;nan
66164;BME280;52962;51.088;3.096;2023-04-10T09:57:30;101033.41;;;16.71;nan
66164;BME280;52962;51.088;3.096;2023-04-10T10:00:01;101028.06;;;16.82;nan
66164;BME280;52962;51.088;3.096;2023-04-10T10:02:36;101020.94;;;16.87;nan
66164;BME280;52962;51.088;3.096;2023-04-10T10:05:06;101023.63;;;16.84;nan
66164;BME280;52962;51.088;3.096;2023-04-10T10:07:37;101010.31;;;16.85;nan
66164;BME280;52962;51.088;3.096;2023-04-10T10:10:06;101011.19;;;16.86;nan
66164;BME280;52962;51.088;3.096;2023-04-10T10:12:41;101012.09;;;16.80;nan
66164;BME280;52962;51.088;3.096;2023-04-10T10:15:16;101010.34;;;16.73;nan
66164;BME280;52962;51.088;3.096;2023-04-10T10:17:51;101020.09;;;16.70;nan
66164;BME280;52962;51.088;3.096;2023-04-10T10:20:23;101008.59;;;16.66;nan
66164;BME280;52962;51.088;3.096;2023-04-10T10:22:53;101005.03;;;16.67;nan
66164;BME280;52962;51.088;3.096;2023-04-10T10:25:22;100998.84;;;16.57;nan
66164;BME280;52962;51.088;3.096;2023-04-10T10:27:52;101002.41;;;16.50;nan
66164;BME280;52962;51.088;3.096;2023-04-10T10:30:23;100984.69;;;16.42;nan
66164;BME280;52962;51.088;3.096;2023-04-10T10:32:56;100998.00;;;16.29;nan
66164;BME280;52962;51.088;3.096;2023-04-10T10:35:25;100998.00;;;16.31;nan
66164;BME280;52962;51.088;3.096;2023-04-10T10:37:57;100997.09;;;16.23;nan
66164;BME280;52962;51.088;3.096;2023-04-10T10:40:28;100998.00;;;16.08;nan
66164;BME280;52962;51.088;3.096;2023-04-10T10:43:06;101001.50;;;15.86;nan
66164;BME280;52962;51.088;3.096;2023-04-10T10:45:40;100997.06;;;15.68;nan
66164;BME280;52962;51.088;3.096;2023-04-10T10:48:10;100994.34;;;15.44;nan
66164;BME280;52962;51.088;3.096;2023-04-10T10:50:50;100981.00;;;15.24;nan
66164;BME280;52962;51.088;3.096;2023-04-10T10:53:33;100974.75;;;15.11;nan
66164;BME280;52962;51.088;3.096;2023-04-10T10:56:32;100969.47;;;15.10;nan
66164;BME280;52962;51.088;3.096;2023-04-10T10:59:00;100977.38;;;15.02;nan
66164;BME280;52962;51.088;3.096;2023-04-10T11:01:30;100973.00;;;15.09;nan
66164;BME280;52962;51.088;3.096;2023-04-10T11:03:58;100973.00;;;15.12;nan
66164;BME280;52962;51.088;3.096;2023-04-10T11:06:49;100979.22;;;15.21;nan
66164;BME280;52962;51.088;3.096;2023-04-10T11:09:43;100965.97;;;15.23;nan
66164;BME280;52962;51.088;3.096;2023-04-10T11:12:12;100965.09;;;15.27;nan
66164;BME280;52962;51.088;3.096;2023-04-10T11:14:41;100963.31;;;15.21;nan
66164;BME280;52962;51.088;3.096;2023-04-10T11:17:11;100960.63;;;15.12;nan
66164;BME280;52962;51.088;3.096;2023-04-10T11:19:58;100944.69;;;15.08;nan
66164;BME280;52962;51.088;3.096;2023-04-10T11:22:27;100950.91;;;15.13;nan
66164;BME280;52962;51.088;3.096;2023-04-10T11:24:59;100942.94;;;15.16;nan
66164;BME280;52962;51.088;3.096;2023-04-10T11:27:45;100944.75;;;15.23;nan
66164;BME280;52962;51.088;3.096;2023-04-10T11:30:32;100945.63;;;15.26;nan
66164;BME280;52962;51.088;3.096;2023-04-10T11:33:03;100930.59;;;15.27;nan
66164;BME280;52962;51.088;3.096;2023-04-10T11:35:32;100927.09;;;15.34;nan
66164;BME280;52962;51.088;3.096;2023-04-10T11:38:08;100925.31;;;15.39;nan
66164;BME280;52962;51.088;3.096;2023-04-10T11:40:58;100920.03;;;15.45;nan
66164;BME280;52962;51.088;3.096;2023-04-10T11:43:27;100914.75;;;15.51;nan
66164;BME280;52962;51.088;3.096;2023-04-10T11:46:02;100921.84;;;15.57;nan
66164;BME280;52962;51.088;3.096;2023-04-10T11:48:33;100912.97;;;15.62;nan
66164;BME280;52962;51.088;3.096;2023-04-10T11:51:07;100911.22;;;15.70;nan
66164;BME280;52962;51.088;3.096;2023-04-10T11:53:36;100906.78;;;15.83;nan
66164;BME280;52962;51.088;3.096;2023-04-10T11:56:04;100905.91;;;15.80;nan
66164;BME280;52962;51.088;3.096;2023-04-10T11:58:33;100897.06;;;15.79;nan
66164;BME280;52962;51.088;3.096;2023-04-10T12:01:03;100893.50;;;15.91;nan
66164;BME280;52962;51.088;3.096;2023-04-10T12:03:38;100892.63;;;16.07;nan
66164;BME280;52962;51.088;3.096;2023-04-10T12:06:09;100880.22;;;16.12;nan
66164;BME280;52962;51.088;3.096;2023-04-10T12:08:38;100884.63;;;16.19;nan
66164;BME280;52962;51.088;3.096;2023-04-10T12:11:09;100878.44;;;16.10;nan
66164;BME280;52962;51.088;3.096;2023-04-10T12:13:37;100887.31;;;15.98;nan
66164;BME280;52962;51.088;3.096;2023-04-10T12:16:07;100874.03;;;16.01;nan
66164;BME280;52962;51.088;3.096;2023-04-10T12:18:37;100877.56;;;16.06;nan
66164;BME280;52962;51.088;3.096;2023-04-10T12:21:06;100875.78;;;16.08;nan
66164;BME280;52962;51.088;3.096;2023-04-10T12:23:36;100865.16;;;16.08;nan
66164;BME280;52962;51.088;3.096;2023-04-10T12:26:13;100853.63;;;16.14;nan
66164;BME280;52962;51.088;3.096;2023-04-10T12:28:49;100853.63;;;16.24;nan
66164;BME280;52962;51.088;3.096;2023-04-10T12:31:25;100860.72;;;16.24;nan
66164;BME280;52962;51.088;3.096;2023-04-10T12:33:56;100851.00;;;16.12;nan
66164;BME280;52962;51.088;3.096;2023-04-10T12:36:26;100838.63;;;16.02;nan
66164;BME280;52962;51.088;3.096;2023-04-10T12:38:56;100832.41;;;16.06;nan
66164;BME280;52962;51.088;3.096;2023-04-10T12:41:27;100830.59;;;16.25;nan
66164;BME280;52962;51.088;3.096;2023-04-10T12:44:06;100829.72;;;16.17;nan
66164;BME280;52962;51.088;3.096;2023-04-10T12:46:34;100831.53;;;15.95;nan
66164;BME280;52962;51.088;3.096;2023-04-10T12:49:12;100835.97;;;15.97;nan
66164;BME280;52962;51.088;3.096;2023-04-10T12:51:45;100820.03;;;15.93;nan
66164;BME280;52962;51.088;3.096;2023-04-10T12:54:27;100833.31;;;15.88;nan
66164;BME280;52962;51.088;3.096;2023-04-10T12:56:56;100824.47;;;15.88;nan
66164;BME280;52962;51.088;3.096;2023-04-10T12:59:25;100836.88;;;15.67;nan
66164;BME280;52962;51.088;3.096;2023-04-10T13:01:53;100829.81;;;15.39;nan
66164;BME280;52962;51.088;3.096;2023-04-10T13:04:23;100836.84;;;15.19;nan
66164;BME280;52962;51.088;3.096;2023-04-10T13:06:52;100845.66;;;14.96;nan
66164;BME280;52962;51.088;3.096;2023-04-10T13:09:20;100845.69;;;15.24;nan
66164;BME280;52962;51.088;3.096;2023-04-10T13:11:50;100858.06;;;15.10;nan
66164;BME280;52962;51.088;3.096;2023-04-10T13:14:18;100851.81;;;14.92;nan
66164;BME280;52962;51.088;3.096;2023-04-10T13:16:46;100860.66;;;14.90;nan
66164;BME280;52962;51.088;3.096;2023-04-10T13:19:14;100852.66;;;14.79;nan
66164;BME280;52962;51.088;3.096;2023-04-10T13:21:44;100842.94;;;14.77;nan
66164;BME280;52962;51.088;3.096;2023-04-10T13:24:12;100842.91;;;14.66;nan
66164;BME280;52962;51.088;3.096;2023-04-10T13:26:42;100837.56;;;14.58;nan
66164;BME280;52962;51.088;3.096;2023-04-10T13:29:10;100833.16;;;14.53;nan
66164;BME280;52962;51.088;3.096;2023-04-10T13:31:38;100837.59;;;14.66;nan
66164;BME280;52962;51.088;3.096;2023-04-10T13:34:06;100832.28;;;14.64;nan
66164;BME280;52962;51.088;3.096;2023-04-10T13:36:35;100838.44;;;14.50;nan
66164;BME280;52962;51.088;3.096;2023-04-10T13:39:04;100834.88;;;14.45;nan
66164;BME280;52962;51.088;3.096;2023-04-10T13:41:32;100841.94;;;14.43;nan